createdAt,value
2022-10-12T00:02:29.761Z,1.75
2022-10-12T00:05:17.440Z,1.70
2022-10-12T00:08:05.287Z,1.37
2022-10-12T00:10:53.037Z,1.67
2022-10-12T00:13:40.651Z,1.47
2022-10-12T00:16:32.193Z,1.42
2022-10-12T00:19:19.664Z,1.50
2022-10-12T00:22:07.251Z,1.30
2022-10-12T00:24:54.606Z,1.60
2022-10-12T00:27:41.882Z,1.60
2022-10-12T00:30:29.237Z,1.52
2022-10-12T00:33:16.485Z,1.30
2022-10-12T00:36:18.659Z,1.55
2022-10-12T00:39:08.979Z,1.50
2022-10-12T00:41:55.994Z,1.75
2022-10-12T00:44:48.246Z,1.50
2022-10-12T00:47:39.140Z,1.30
2022-10-12T00:50:32.736Z,1.32
2022-10-12T00:53:23.745Z,1.22
2022-10-12T00:56:14.325Z,1.25
2022-10-12T00:59:04.616Z,1.60
2022-10-12T01:01:52.178Z,1.30
2022-10-12T01:04:40.953Z,1.60
2022-10-12T01:07:28.341Z,1.60
2022-10-12T01:10:16.262Z,1.52
2022-10-12T01:13:04.036Z,1.35
2022-10-12T01:16:06.512Z,1.37
2022-10-12T01:19:17.683Z,1.70
2022-10-12T01:22:08.741Z,1.42
2022-10-12T01:25:08.426Z,1.60
2022-10-12T01:28:01.838Z,1.55
2022-10-12T01:30:52.033Z,1.17
2022-10-12T01:33:48.206Z,2.20
2022-10-12T01:36:38.489Z,1.37
2022-10-12T01:39:31.851Z,1.35
2022-10-12T01:42:25.229Z,1.30
2022-10-12T01:45:15.925Z,1.57
2022-10-12T01:48:04.709Z,1.50
2022-10-12T01:50:55.611Z,1.57
2022-10-12T01:53:48.779Z,1.12
2022-10-12T01:56:45.208Z,1.52
2022-10-12T01:59:47.725Z,1.40
2022-10-12T02:02:38.107Z,1.42
2022-10-12T02:05:37.300Z,1.40
2022-10-12T02:08:33.780Z,1.22
2022-10-12T02:11:24.452Z,1.40
2022-10-12T02:14:21.138Z,1.60
2022-10-12T02:17:11.350Z,1.40
2022-10-12T02:20:00.643Z,1.20
2022-10-12T02:22:51.147Z,1.32
2022-10-12T02:25:39.761Z,1.20
2022-10-12T02:28:30.491Z,1.50
2022-10-12T02:31:32.306Z,1.55
2022-10-12T02:34:31.821Z,1.30
2022-10-12T02:37:39.277Z,1.52
2022-10-12T02:40:48.018Z,1.77
2022-10-12T02:43:41.770Z,1.40
2022-10-12T02:46:30.859Z,1.30
2022-10-12T02:49:19.900Z,1.70
2022-10-12T02:52:08.677Z,1.45
2022-10-12T02:54:56.306Z,1.50
2022-10-12T02:57:43.851Z,1.32
2022-10-12T03:00:34.787Z,1.55
2022-10-12T03:03:22.341Z,1.37
2022-10-12T03:06:10.014Z,1.60
2022-10-12T03:08:57.328Z,1.42
2022-10-12T03:11:48.124Z,1.20
2022-10-12T03:14:37.498Z,1.32
2022-10-12T03:17:25.001Z,1.37
2022-10-12T03:20:12.602Z,1.40
2022-10-12T03:22:59.956Z,1.67
2022-10-12T03:25:47.491Z,1.30
2022-10-12T03:28:35.268Z,1.57
2022-10-12T03:31:22.754Z,1.72
2022-10-12T03:34:10.246Z,1.30
2022-10-12T03:36:57.483Z,1.20
2022-10-12T03:39:46.153Z,1.35
2022-10-12T03:42:33.415Z,1.37
2022-10-12T03:45:20.657Z,1.20
2022-10-12T03:48:09.076Z,1.50
2022-10-12T03:50:56.449Z,1.50
2022-10-12T03:53:45.543Z,2.02
2022-10-12T03:56:32.681Z,1.32
2022-10-12T03:59:39.730Z,1.50
2022-10-12T04:02:27.241Z,2.00
2022-10-12T04:05:14.608Z,1.50
2022-10-12T04:08:01.704Z,1.92
2022-10-12T04:10:50.654Z,1.40
2022-10-12T04:13:37.917Z,2.08
2022-10-12T04:16:27.454Z,1.72
2022-10-12T04:19:14.745Z,1.72
2022-10-12T04:22:02.905Z,1.87
2022-10-12T04:24:50.459Z,1.98
2022-10-12T04:27:38.335Z,2.00
2022-10-12T04:30:25.715Z,2.08
2022-10-12T04:33:13.141Z,1.62
2022-10-12T04:36:00.386Z,1.35
2022-10-12T04:38:47.845Z,1.55
2022-10-12T04:41:35.185Z,1.40
2022-10-12T04:44:23.328Z,2.20
2022-10-12T04:47:30.004Z,1.80
2022-10-12T04:50:17.339Z,1.50
2022-10-12T04:53:04.686Z,2.00
2022-10-12T04:55:52.063Z,1.62
2022-10-12T04:58:39.423Z,2.00
2022-10-12T05:01:26.818Z,1.72
2022-10-12T05:04:14.289Z,1.90
2022-10-12T05:07:01.754Z,1.52
2022-10-12T05:09:49.227Z,2.10
2022-10-12T05:12:36.781Z,2.10
2022-10-12T05:15:24.402Z,2.12
2022-10-12T05:18:12.103Z,2.10
2022-10-12T05:20:59.535Z,1.77
2022-10-12T05:23:52.179Z,1.82
2022-10-12T05:26:39.275Z,2.15
2022-10-12T05:29:26.799Z,2.10
2022-10-12T05:32:14.543Z,1.82
2022-10-12T05:35:01.850Z,2.20
2022-10-12T05:37:49.405Z,2.20
2022-10-12T05:40:36.840Z,1.67
2022-10-12T05:43:24.673Z,2.10
2022-10-12T05:46:14.558Z,2.20
2022-10-12T05:49:01.299Z,1.85
2022-10-12T05:52:08.006Z,2.10
2022-10-12T05:54:55.520Z,2.40
2022-10-12T05:57:43.129Z,1.67
2022-10-12T06:00:30.389Z,2.00
2022-10-12T06:03:19.033Z,1.87
2022-10-12T06:06:07.855Z,2.70
2022-10-12T06:08:55.193Z,2.00
2022-10-12T06:11:42.696Z,2.10
2022-10-12T06:14:30.192Z,1.95
2022-10-12T06:17:17.633Z,2.10
2022-10-12T06:20:05.220Z,1.98
2022-10-12T06:22:52.688Z,2.12
2022-10-12T06:25:39.958Z,2.00
2022-10-12T06:28:27.298Z,1.95
2022-10-12T06:31:14.974Z,2.05
2022-10-12T06:34:02.202Z,2.30
2022-10-12T06:36:49.945Z,1.92
2022-10-12T06:39:37.353Z,2.20
2022-10-12T06:42:24.888Z,2.40
2022-10-12T06:45:12.997Z,2.25
2022-10-12T06:48:00.948Z,2.40
2022-10-12T06:50:48.670Z,1.95
2022-10-12T06:53:36.637Z,2.00
2022-10-12T06:56:24.323Z,2.30
2022-10-12T06:59:13.686Z,3.27
2022-10-12T07:02:00.921Z,2.52
2022-10-12T07:04:52.646Z,2.42
2022-10-12T07:07:39.806Z,3.15
2022-10-12T07:10:28.179Z,3.10
2022-10-12T07:13:15.527Z,3.10
2022-10-12T07:16:23.947Z,3.00
2022-10-12T07:19:11.173Z,3.17
2022-10-12T07:21:58.432Z,3.37
2022-10-12T07:24:45.730Z,3.58
2022-10-12T07:27:32.920Z,3.47
2022-10-12T07:30:20.167Z,3.10
2022-10-12T07:33:07.439Z,3.80
2022-10-12T07:36:13.442Z,4.37
2022-10-12T07:38:48.751Z,4.08
2022-10-12T07:41:36.096Z,4.20
2022-10-12T07:44:24.500Z,4.08
2022-10-12T07:47:11.789Z,4.35
2022-10-12T07:49:59.654Z,3.70
2022-10-12T07:52:46.942Z,4.03
2022-10-12T07:55:34.534Z,3.77
2022-10-12T07:58:21.858Z,3.50
2022-10-12T08:01:11.067Z,3.98
2022-10-12T08:04:01.691Z,3.75
2022-10-12T08:06:48.126Z,3.72
2022-10-12T08:09:36.245Z,3.10
2022-10-12T08:12:23.879Z,3.17
2022-10-12T08:15:11.452Z,3.20
2022-10-12T08:17:58.653Z,2.40
2022-10-12T08:20:45.998Z,2.90
2022-10-12T08:23:34.529Z,2.65
2022-10-12T08:26:22.024Z,2.87
2022-10-12T08:29:10.468Z,2.40
2022-10-12T08:31:57.700Z,2.98
2022-10-12T08:34:45.159Z,2.85
2022-10-12T08:37:32.574Z,2.77
2022-10-12T08:40:23.174Z,3.20
2022-10-12T08:43:13.561Z,2.60
2022-10-12T08:46:03.298Z,2.80
2022-10-12T08:49:11.502Z,2.60
2022-10-12T08:52:02.047Z,2.72
2022-10-12T08:54:49.447Z,4.75
2022-10-12T08:57:37.102Z,3.90
2022-10-12T09:00:25.115Z,8.75
2022-10-12T09:03:18.332Z,4.37
2022-10-12T09:06:17.765Z,3.02
2022-10-12T09:09:20.036Z,3.17
2022-10-12T09:12:10.380Z,3.25
2022-10-12T09:15:03.474Z,3.80
2022-10-12T09:17:58.937Z,3.05
2022-10-12T09:20:48.952Z,3.50
2022-10-12T09:23:41.147Z,3.20
2022-10-12T09:26:43.432Z,3.80
2022-10-12T09:29:32.399Z,3.40
2022-10-12T09:32:31.866Z,3.75
2022-10-12T09:35:19.158Z,4.10
2022-10-12T09:38:09.161Z,4.03
2022-10-12T09:40:56.523Z,4.33
2022-10-12T09:43:44.205Z,4.33
2022-10-12T09:46:52.646Z,4.35
2022-10-12T09:49:44.940Z,4.62
2022-10-12T09:52:37.767Z,4.40
2022-10-12T09:58:17.692Z,5.87
2022-10-12T10:01:21.384Z,4.90
2022-10-12T10:04:12.248Z,5.12
2022-10-12T10:07:19.966Z,5.20
2022-10-12T10:13:03.692Z,5.60
2022-10-12T10:16:05.534Z,4.53
2022-10-12T10:18:58.418Z,4.85
2022-10-12T10:21:45.686Z,4.45
2022-10-12T10:24:34.372Z,5.53
2022-10-12T10:27:37.614Z,4.87
2022-10-12T10:30:34.975Z,5.03
2022-10-12T10:33:19.247Z,5.33
2022-10-12T10:36:22.221Z,5.95
2022-10-12T10:39:15.377Z,5.55
2022-10-12T10:42:14.809Z,5.42
2022-10-12T10:45:04.717Z,5.10
2022-10-12T10:47:54.510Z,5.25
2022-10-12T10:50:47.190Z,5.97
2022-10-12T10:53:46.755Z,5.10
2022-10-12T10:56:34.420Z,5.25
2022-10-12T10:59:27.870Z,6.78
2022-10-12T11:02:33.058Z,5.80
2022-10-12T11:05:29.650Z,6.40
2022-10-12T11:08:20.683Z,5.20
2022-10-12T11:11:14.039Z,4.95
2022-10-12T11:14:19.194Z,5.37
2022-10-12T11:17:09.707Z,5.12
2022-10-12T11:20:19.536Z,5.22
2022-10-12T11:23:12.049Z,5.35
2022-10-12T11:26:10.860Z,5.25
2022-10-12T11:29:00.457Z,5.62
2022-10-12T11:32:07.656Z,5.00
2022-10-12T11:37:55.375Z,6.40
2022-10-12T11:41:09.426Z,5.80
2022-10-12T11:43:52.885Z,5.75
2022-10-12T11:46:43.190Z,4.97
2022-10-12T11:49:39.580Z,5.05
2022-10-12T11:52:31.513Z,5.80
2022-10-12T11:55:40.020Z,5.20
2022-10-12T11:58:55.744Z,5.20
2022-10-12T12:01:28.412Z,5.42
2022-10-12T12:04:43.964Z,4.95
2022-10-12T12:07:25.132Z,5.08
2022-10-12T12:10:32.564Z,5.53
2022-10-12T12:13:22.991Z,4.85
2022-10-12T12:16:19.060Z,4.90
2022-10-12T12:19:38.402Z,4.87
2022-10-12T12:22:50.346Z,5.58
2022-10-12T12:25:38.637Z,5.30
2022-10-12T12:28:26.049Z,5.55
2022-10-12T12:31:16.619Z,5.15
2022-10-12T12:34:07.163Z,5.47
2022-10-12T12:36:54.650Z,6.05
2022-10-12T12:39:44.532Z,6.05
2022-10-12T12:42:33.037Z,6.12
2022-10-12T12:45:35.566Z,5.00
2022-10-12T12:48:45.715Z,6.20
2022-10-12T12:51:36.416Z,6.28
2022-10-12T12:54:24.630Z,5.65
2022-10-12T12:57:30.359Z,6.25
2022-10-12T13:00:23.096Z,5.03
2022-10-12T13:03:22.589Z,5.22
2022-10-12T13:06:21.522Z,5.50
2022-10-12T13:09:17.547Z,5.70
2022-10-12T13:12:19.970Z,5.65
2022-10-12T13:15:22.456Z,5.15
2022-10-12T13:18:48.324Z,6.33
2022-10-12T13:21:22.684Z,6.05
2022-10-12T13:24:18.778Z,6.05
2022-10-12T13:27:35.255Z,5.75
2022-10-12T13:30:25.886Z,5.55
2022-10-12T13:33:16.338Z,5.53
2022-10-12T13:36:23.322Z,5.10
2022-10-12T13:42:05.540Z,6.30
2022-10-12T13:44:52.672Z,6.08
2022-10-12T13:47:44.609Z,6.87
2022-10-12T13:50:32.759Z,6.83
2022-10-12T13:53:20.370Z,6.05
2022-10-12T13:56:16.616Z,6.72
2022-10-12T13:59:08.665Z,6.12
2022-10-12T14:02:01.926Z,6.67
2022-10-12T14:04:49.260Z,6.40
2022-10-12T14:07:41.410Z,6.47
2022-10-12T14:10:37.814Z,6.67
2022-10-12T14:13:33.844Z,6.57
2022-10-12T14:16:21.257Z,6.58
2022-10-12T14:19:24.328Z,6.22
2022-10-12T14:22:13.428Z,5.92
2022-10-12T14:25:18.637Z,6.50
2022-10-12T14:28:07.937Z,6.37
2022-10-12T14:30:55.998Z,6.15
2022-10-12T14:33:43.585Z,6.22
2022-10-12T14:36:51.808Z,7.17
2022-10-12T14:39:39.375Z,7.58
2022-10-12T14:42:35.739Z,7.95
2022-10-12T14:45:25.717Z,8.53
2022-10-12T14:48:19.345Z,8.13
2022-10-12T14:51:06.780Z,8.68
2022-10-12T14:54:05.039Z,8.23
2022-10-12T14:56:52.344Z,8.48
2022-10-12T14:59:39.644Z,7.90
2022-10-12T15:02:35.489Z,7.70
2022-10-12T15:05:25.081Z,8.17
2022-10-12T15:08:12.576Z,8.60
2022-10-12T15:11:00.011Z,8.23
2022-10-12T15:13:47.149Z,8.60
2022-10-12T15:16:34.323Z,8.05
2022-10-12T15:19:21.681Z,7.70
2022-10-12T15:22:15.052Z,7.50
2022-10-12T15:25:02.475Z,8.35
2022-10-12T15:27:49.867Z,8.13
2022-10-12T15:30:52.206Z,7.62
2022-10-12T15:33:26.748Z,8.03
2022-10-12T15:36:13.952Z,8.53
2022-10-12T15:39:01.574Z,8.73
2022-10-12T15:41:49.169Z,8.13
2022-10-12T15:44:41.664Z,8.48
2022-10-12T15:47:28.911Z,7.60
2022-10-12T15:50:17.670Z,8.40
2022-10-12T15:53:05.476Z,8.85
2022-10-12T15:55:54.311Z,7.60
2022-10-12T15:58:42.511Z,8.03
2022-10-12T16:01:29.786Z,7.55
2022-10-12T16:04:19.745Z,7.42
2022-10-12T16:07:07.275Z,7.58
2022-10-12T16:09:54.654Z,8.03
2022-10-12T16:12:44.160Z,7.62
2022-10-12T16:15:34.501Z,7.62
2022-10-12T16:18:21.679Z,7.28
2022-10-12T16:21:09.337Z,7.00
2022-10-12T16:23:56.798Z,6.45
2022-10-12T16:26:45.124Z,9.15
2022-10-12T16:29:32.896Z,7.17
2022-10-12T16:32:20.157Z,6.70
2022-10-12T16:35:08.070Z,7.55
2022-10-12T16:37:55.520Z,8.15
2022-10-12T16:40:44.657Z,7.05
2022-10-12T16:43:32.048Z,7.50
2022-10-12T16:46:19.354Z,7.42
2022-10-12T16:49:06.609Z,7.78
2022-10-12T16:51:53.883Z,7.22
2022-10-12T16:54:41.165Z,7.55
2022-10-12T16:57:28.644Z,7.70
2022-10-12T17:00:19.207Z,7.90
2022-10-12T17:03:08.111Z,7.92
2022-10-12T17:06:00.109Z,6.67
2022-10-12T17:08:47.372Z,7.72
2022-10-12T17:11:36.973Z,8.15
2022-10-12T17:14:25.298Z,8.20
2022-10-12T17:17:13.145Z,7.15
2022-10-12T17:22:48.156Z,8.03
2022-10-12T17:25:35.416Z,7.60
2022-10-12T17:28:22.812Z,8.15
2022-10-12T17:31:11.873Z,8.20
2022-10-12T17:33:59.830Z,7.95
2022-10-12T17:36:47.883Z,7.65
2022-10-12T17:39:38.751Z,7.83
2022-10-12T17:42:26.188Z,9.58
2022-10-12T17:45:13.606Z,8.95
2022-10-12T17:48:00.931Z,9.30
2022-10-12T17:50:48.376Z,9.30
2022-10-12T17:53:37.369Z,9.85
2022-10-12T17:56:26.035Z,9.25
2022-10-12T17:59:15.760Z,9.30
2022-10-12T18:02:03.937Z,8.93
2022-10-12T18:04:52.162Z,9.65
2022-10-12T18:07:40.714Z,9.25
2022-10-12T18:10:28.705Z,10.03
2022-10-12T18:13:16.316Z,10.43
2022-10-12T18:16:05.840Z,10.53
2022-10-12T18:18:54.894Z,9.45
2022-10-12T18:21:42.257Z,10.20
2022-10-12T18:24:29.865Z,10.35
2022-10-12T18:27:17.166Z,10.25
2022-10-12T18:30:05.530Z,11.45
2022-10-12T18:32:52.877Z,10.82
2022-10-12T18:35:40.638Z,11.05
2022-10-12T18:38:41.621Z,10.95
2022-10-12T18:41:28.914Z,11.55
2022-10-12T18:44:17.677Z,12.05
2022-10-12T18:47:04.911Z,11.97
2022-10-12T18:49:52.464Z,12.37
2022-10-12T18:52:40.110Z,11.63
2022-10-12T18:55:27.395Z,11.12
2022-10-12T18:58:15.055Z,11.88
2022-10-12T19:01:02.655Z,11.20
2022-10-12T19:03:50.418Z,11.83
2022-10-12T19:06:41.481Z,11.63
2022-10-12T19:09:29.090Z,11.35
2022-10-12T19:12:18.473Z,13.13
2022-10-12T19:15:06.757Z,12.43
2022-10-12T19:17:54.288Z,12.58
2022-10-12T19:20:41.744Z,11.97
2022-10-12T19:23:30.592Z,12.98
2022-10-12T19:26:23.056Z,12.73
2022-10-12T19:29:11.006Z,12.10
2022-10-12T19:31:58.458Z,11.78
2022-10-12T19:34:46.003Z,12.60
2022-10-12T19:37:35.576Z,12.50
2022-10-12T19:40:25.033Z,12.60
2022-10-12T19:43:12.790Z,12.20
2022-10-12T19:46:08.393Z,12.68
2022-10-12T19:48:57.789Z,12.90
2022-10-12T19:51:46.117Z,12.93
2022-10-12T19:54:36.203Z,12.28
2022-10-12T19:57:23.606Z,13.08
2022-10-12T20:00:32.287Z,12.65
2022-10-12T20:03:19.666Z,12.23
2022-10-12T20:06:09.376Z,12.03
2022-10-12T20:08:59.148Z,12.65
2022-10-12T20:11:46.624Z,12.85
2022-10-12T20:14:33.818Z,12.43
2022-10-12T20:17:21.506Z,11.90
2022-10-12T20:20:09.068Z,11.65
2022-10-12T20:22:56.342Z,12.30
2022-10-12T20:25:46.263Z,13.00
2022-10-12T20:28:35.382Z,12.95
2022-10-12T20:31:24.593Z,11.10
2022-10-12T20:34:11.729Z,11.95
2022-10-12T20:36:59.399Z,11.85
2022-10-12T20:39:49.984Z,12.18
2022-10-12T20:42:37.511Z,11.10
2022-10-12T20:45:24.973Z,12.68
2022-10-12T20:48:12.402Z,11.95
2022-10-12T20:51:00.115Z,10.98
2022-10-12T20:53:47.518Z,11.95
2022-10-12T20:56:38.267Z,12.82
2022-10-12T20:59:25.452Z,13.65
2022-10-12T21:02:13.349Z,12.80
2022-10-12T21:05:00.987Z,11.33
2022-10-12T21:07:48.538Z,12.75
2022-10-12T21:10:40.008Z,13.10
2022-10-12T21:13:24.733Z,12.90
2022-10-12T21:16:16.095Z,12.40
2022-10-12T21:19:03.145Z,12.85
2022-10-12T21:21:50.757Z,11.97
2022-10-12T21:24:38.173Z,12.65
2022-10-12T21:27:25.936Z,11.65
2022-10-12T21:30:13.652Z,12.18
2022-10-12T21:33:00.765Z,12.68
2022-10-12T21:35:48.329Z,13.13
2022-10-12T21:38:35.827Z,12.82
2022-10-12T21:41:25.700Z,11.80
2022-10-12T21:44:13.592Z,12.70
2022-10-12T21:47:01.127Z,12.47
2022-10-12T21:49:48.725Z,11.97
2022-10-12T21:52:36.704Z,13.72
2022-10-12T21:55:24.060Z,12.73
2022-10-12T21:58:11.382Z,12.55
2022-10-12T22:01:07.211Z,13.83
2022-10-12T22:03:56.339Z,12.40
2022-10-12T22:06:43.703Z,13.85
2022-10-12T22:09:30.859Z,12.18
2022-10-12T22:12:18.677Z,12.40
2022-10-12T22:15:08.076Z,11.15
2022-10-12T22:17:55.390Z,10.32
2022-10-12T22:20:42.904Z,12.05
2022-10-12T22:23:30.204Z,12.80
2022-10-12T22:26:20.585Z,13.15
2022-10-12T22:29:08.669Z,11.15
2022-10-12T22:31:55.952Z,12.40
2022-10-12T22:34:43.287Z,11.18
2022-10-12T22:37:33.725Z,11.80
2022-10-12T22:40:21.616Z,11.28
2022-10-12T22:43:08.575Z,11.78
2022-10-12T22:45:57.066Z,12.98
2022-10-12T22:48:44.530Z,11.73
2022-10-12T22:51:34.597Z,11.03
2022-10-12T22:54:22.991Z,12.35
2022-10-12T22:57:10.418Z,12.60
2022-10-12T22:59:57.944Z,12.13
2022-10-12T23:02:45.572Z,12.63
2022-10-12T23:05:33.317Z,12.33
2022-10-12T23:08:20.569Z,11.43
2022-10-12T23:11:14.194Z,11.40
2022-10-12T23:14:01.712Z,11.48
2022-10-12T23:16:49.095Z,12.37
2022-10-12T23:19:36.285Z,11.00
2022-10-12T23:22:23.590Z,11.63
2022-10-12T23:25:11.169Z,13.22
2022-10-12T23:28:18.043Z,12.88
2022-10-12T23:31:07.654Z,12.70
2022-10-12T23:33:59.606Z,11.25
2022-10-12T23:36:47.086Z,11.57
2022-10-12T23:39:34.314Z,12.05
2022-10-12T23:42:21.807Z,13.22
2022-10-12T23:45:09.593Z,12.73
2022-10-12T23:47:56.898Z,12.50
2022-10-12T23:50:44.384Z,14.90
2022-10-12T23:53:31.984Z,12.30
2022-10-12T23:56:19.573Z,10.40
2022-10-12T23:59:07.111Z,12.37
